createdAt,value
2023-04-13T00:00:11.591Z,43.10
2023-04-13T00:00:33.312Z,43.04
2023-04-13T00:00:54.997Z,43.02
2023-04-13T00:01:16.660Z,42.87
2023-04-13T00:01:40.622Z,43.00
2023-04-13T00:02:02.453Z,42.78
2023-04-13T00:02:24.414Z,43.02
2023-04-13T00:02:46.604Z,43.07
2023-04-13T00:03:13.632Z,43.22
2023-04-13T00:03:37.291Z,43.57
2023-04-13T00:04:03.945Z,43.56
2023-04-13T00:04:26.807Z,43.55
2023-04-13T00:04:50.761Z,43.46
2023-04-13T00:05:13.314Z,43.54
2023-04-13T00:05:38.027Z,43.29
2023-04-13T00:06:00.007Z,43.31
2023-04-13T00:06:22.917Z,43.36
2023-04-13T00:06:47.009Z,43.27
2023-04-13T00:07:14.866Z,43.21
2023-04-13T00:07:38.242Z,43.23
2023-04-13T00:08:03.109Z,43.35
2023-04-13T00:08:25.191Z,43.33
2023-04-13T00:08:47.911Z,43.12
2023-04-13T00:09:09.735Z,43.01
2023-04-13T00:09:31.515Z,43.09
2023-04-13T00:09:53.105Z,43.13
2023-04-13T00:10:19.114Z,43.21
2023-04-13T00:10:41.566Z,43.47
2023-04-13T00:11:04.455Z,43.19
2023-04-13T00:11:27.866Z,42.91
2023-04-13T00:11:49.560Z,42.93
2023-04-13T00:12:13.999Z,42.88
2023-04-13T00:12:36.350Z,42.89
2023-04-13T00:12:58.304Z,42.72
2023-04-13T00:13:19.906Z,42.73
2023-04-13T00:13:42.828Z,42.73
2023-04-13T00:14:04.713Z,42.47
2023-04-13T00:14:28.443Z,42.42
2023-04-13T00:14:50.950Z,42.48
2023-04-13T00:15:12.971Z,42.53
2023-04-13T00:15:38.045Z,43.38
2023-04-13T00:16:01.359Z,43.51
2023-04-13T00:16:24.276Z,43.08
2023-04-13T00:16:47.086Z,42.92
2023-04-13T00:17:09.857Z,42.32
2023-04-13T00:18:00.169Z,41.91
2023-04-13T00:18:21.862Z,42.07
2023-04-13T00:18:45.103Z,42.53
2023-04-13T00:19:07.278Z,42.57
2023-04-13T00:19:28.876Z,42.14
2023-04-13T00:19:53.776Z,42.06
2023-04-13T00:20:16.041Z,42.79
2023-04-13T00:20:41.653Z,42.92
2023-04-13T00:21:03.720Z,42.92
2023-04-13T00:21:25.748Z,42.66
2023-04-13T00:21:47.372Z,42.21
2023-04-13T00:22:10.657Z,42.00
2023-04-13T00:22:34.339Z,42.01
2023-04-13T00:22:56.377Z,41.78
2023-04-13T00:23:18.060Z,41.67
2023-04-13T00:23:40.613Z,41.99
2023-04-13T00:24:04.256Z,42.01
2023-04-13T00:24:26.168Z,42.08
2023-04-13T00:24:48.013Z,42.08
2023-04-13T00:25:11.881Z,41.85
2023-04-13T00:25:34.653Z,42.46
2023-04-13T00:25:56.788Z,42.64
2023-04-13T00:26:22.894Z,42.76
2023-04-13T00:26:44.840Z,42.55
2023-04-13T00:27:08.623Z,42.37
2023-04-13T00:27:32.047Z,42.75
2023-04-13T00:27:55.337Z,42.48
2023-04-13T00:28:18.880Z,42.21
2023-04-13T00:28:42.317Z,41.85
2023-04-13T00:29:04.140Z,42.02
2023-04-13T00:29:26.187Z,42.13
2023-04-13T00:29:48.029Z,42.03
2023-04-13T00:30:11.490Z,42.18
2023-04-13T00:30:34.624Z,42.16
2023-04-13T00:30:59.978Z,41.78
2023-04-13T00:31:22.325Z,41.66
2023-04-13T00:31:44.175Z,41.91
2023-04-13T00:32:06.161Z,41.93
2023-04-13T00:32:28.740Z,41.90
2023-04-13T00:32:50.541Z,41.99
2023-04-13T00:33:12.363Z,42.24
2023-04-13T00:33:34.031Z,42.10
2023-04-13T00:33:57.124Z,42.15
2023-04-13T00:34:19.000Z,41.84
2023-04-13T00:34:41.328Z,41.66
2023-04-13T00:35:03.119Z,42.01
2023-04-13T00:35:26.497Z,42.15
2023-04-13T00:35:49.137Z,41.85
2023-04-13T00:36:10.913Z,41.54
2023-04-13T00:36:32.956Z,41.78
2023-04-13T00:36:55.712Z,42.00
2023-04-13T00:37:18.811Z,42.36
2023-04-13T00:37:43.029Z,42.23
2023-04-13T00:38:04.892Z,41.92
2023-04-13T00:38:27.267Z,42.01
2023-04-13T00:38:48.925Z,41.98
2023-04-13T00:39:11.828Z,41.88
2023-04-13T00:39:33.737Z,41.89
2023-04-13T00:39:56.307Z,42.08
2023-04-13T00:40:18.611Z,42.20
2023-04-13T00:40:41.211Z,41.76
2023-04-13T00:41:03.986Z,41.73
2023-04-13T00:41:26.073Z,41.83
2023-04-13T00:41:47.642Z,41.42
2023-04-13T00:42:09.406Z,41.33
2023-04-13T00:42:33.372Z,41.50
2023-04-13T00:42:54.991Z,41.32
2023-04-13T00:43:16.876Z,41.42
2023-04-13T00:43:39.732Z,40.95
2023-04-13T00:44:02.182Z,40.95
2023-04-13T00:44:23.812Z,40.89
2023-04-13T00:44:45.461Z,40.94
2023-04-13T00:45:09.517Z,41.45
2023-04-13T00:45:38.926Z,41.44
2023-04-13T00:46:00.773Z,41.09
2023-04-13T00:46:22.829Z,41.30
2023-04-13T00:46:46.547Z,41.08
2023-04-13T00:47:08.645Z,40.90
2023-04-13T00:47:33.942Z,40.91
2023-04-13T00:47:57.816Z,41.19
2023-04-13T00:48:19.600Z,41.13
2023-04-13T00:48:43.123Z,41.45
2023-04-13T00:49:04.793Z,41.90
2023-04-13T00:49:27.568Z,41.63
2023-04-13T00:49:49.380Z,41.28
2023-04-13T00:50:11.241Z,40.91
2023-04-13T00:50:35.073Z,40.81
2023-04-13T00:50:56.966Z,40.89
2023-04-13T00:51:18.646Z,41.04
2023-04-13T00:51:40.561Z,41.28
2023-04-13T00:52:05.395Z,41.16
2023-04-13T00:52:27.288Z,40.99
2023-04-13T00:52:49.294Z,40.81
2023-04-13T00:53:13.693Z,40.66
2023-04-13T00:53:37.087Z,40.34
2023-04-13T00:53:59.445Z,40.43
2023-04-13T00:54:22.240Z,40.32
2023-04-13T00:54:43.888Z,40.37
2023-04-13T00:55:08.470Z,40.46
2023-04-13T00:55:30.512Z,40.49
2023-04-13T00:55:53.257Z,40.40
2023-04-13T00:56:15.175Z,40.02
2023-04-13T00:56:38.306Z,39.90
2023-04-13T00:57:00.817Z,40.07
2023-04-13T00:57:24.158Z,40.09
2023-04-13T00:57:49.998Z,40.02
2023-04-13T00:58:14.448Z,40.06
2023-04-13T00:58:36.702Z,40.37
2023-04-13T00:58:59.072Z,40.59
2023-04-13T00:59:20.973Z,40.34
2023-04-13T00:59:44.149Z,40.31
2023-04-13T01:00:08.553Z,40.22
2023-04-13T01:00:30.217Z,40.60
2023-04-13T01:00:52.853Z,41.00
2023-04-13T01:01:14.464Z,41.21
2023-04-13T01:01:45.752Z,40.74
2023-04-13T01:02:07.662Z,40.79
2023-04-13T01:02:29.806Z,40.66
2023-04-13T01:02:52.966Z,40.85
2023-04-13T01:03:14.937Z,40.77
2023-04-13T01:03:37.072Z,40.61
2023-04-13T01:03:59.475Z,40.67
2023-04-13T01:04:22.401Z,40.68
2023-04-13T01:04:49.221Z,40.58
2023-04-13T01:05:12.614Z,40.39
2023-04-13T01:05:39.977Z,40.42
2023-04-13T01:06:14.436Z,40.54
2023-04-13T01:06:42.671Z,41.02
2023-04-13T01:07:12.997Z,40.56
2023-04-13T01:07:41.428Z,40.68
2023-04-13T01:08:13.252Z,40.56
2023-04-13T01:08:38.699Z,40.56
2023-04-13T01:09:08.245Z,40.73
2023-04-13T01:09:35.135Z,40.49
2023-04-13T01:10:05.094Z,40.39
2023-04-13T01:10:33.701Z,40.55
2023-04-13T01:11:04.207Z,40.47
2023-04-13T01:11:31.487Z,40.35
2023-04-13T01:12:00.137Z,40.55
2023-04-13T01:12:30.020Z,40.57
2023-04-13T01:13:00.215Z,40.87
2023-04-13T01:13:29.618Z,40.52
2023-04-13T01:14:01.849Z,40.66
2023-04-13T01:14:30.632Z,40.28
2023-04-13T01:14:58.741Z,40.81
2023-04-13T01:15:22.337Z,40.71
2023-04-13T01:15:52.293Z,40.88
2023-04-13T01:16:20.528Z,41.21
2023-04-13T01:16:49.088Z,41.26
2023-04-13T01:18:41.520Z,41.03
2023-04-13T01:19:59.560Z,40.27
2023-04-13T01:20:28.745Z,40.71
2023-04-13T01:20:53.076Z,40.60
2023-04-13T01:21:19.473Z,40.78
2023-04-13T01:21:43.482Z,40.95
2023-04-13T01:22:06.557Z,40.80
2023-04-13T01:22:30.068Z,40.94
2023-04-13T01:22:55.749Z,40.70
2023-04-13T01:23:27.558Z,40.28
2023-04-13T01:23:57.609Z,40.11
2023-04-13T01:24:32.141Z,40.34
2023-04-13T01:25:07.767Z,40.46
2023-04-13T01:25:38.769Z,40.61
2023-04-13T01:26:06.970Z,40.69
2023-04-13T01:26:36.960Z,40.86
2023-04-13T01:27:08.175Z,40.67
2023-04-13T01:27:43.035Z,40.79
2023-04-13T01:28:08.404Z,40.76
2023-04-13T01:28:31.138Z,40.99
2023-04-13T01:28:53.566Z,41.33
2023-04-13T01:29:17.164Z,41.23
2023-04-13T01:29:44.175Z,40.94
2023-04-13T01:30:08.429Z,40.94
2023-04-13T01:30:31.520Z,40.91
2023-04-13T01:30:57.265Z,40.92
2023-04-13T01:31:20.242Z,41.24
2023-04-13T01:31:43.577Z,41.05
2023-04-13T01:32:06.902Z,40.76
2023-04-13T01:32:28.916Z,40.91
2023-04-13T01:32:53.053Z,40.87
2023-04-13T01:33:16.104Z,40.96
2023-04-13T01:33:40.434Z,40.68
2023-04-13T01:34:04.796Z,40.39
2023-04-13T01:34:26.831Z,40.29
2023-04-13T01:34:50.085Z,40.64
2023-04-13T01:35:14.471Z,40.69
2023-04-13T01:35:38.146Z,40.75
2023-04-13T01:36:02.931Z,40.85
2023-04-13T01:36:25.978Z,41.15
2023-04-13T01:36:48.054Z,41.25
2023-04-13T01:37:10.761Z,41.14
2023-04-13T01:37:33.754Z,41.26
2023-04-13T01:37:57.594Z,40.86
2023-04-13T01:38:24.589Z,40.53
2023-04-13T01:38:48.932Z,40.54
2023-04-13T01:39:20.111Z,40.82
2023-04-13T01:39:42.996Z,40.70
2023-04-13T01:40:15.219Z,40.50
2023-04-13T01:40:41.682Z,40.14
2023-04-13T01:41:06.405Z,40.12
2023-04-13T01:41:30.314Z,40.21
2023-04-13T01:41:51.921Z,40.18
2023-04-13T01:42:14.059Z,40.78
2023-04-13T01:42:37.490Z,40.47
2023-04-13T01:43:00.072Z,40.64
2023-04-13T01:43:28.231Z,40.53
2023-04-13T01:44:01.254Z,40.77
2023-04-13T01:44:33.409Z,40.28
2023-04-13T01:44:57.607Z,40.27
2023-04-13T01:45:22.065Z,40.18
2023-04-13T01:45:47.823Z,40.25
2023-04-13T01:46:13.852Z,40.21
2023-04-13T01:46:47.600Z,40.02
2023-04-13T01:47:30.392Z,40.06
2023-04-13T01:48:13.899Z,40.40
2023-04-13T01:48:50.449Z,40.41
2023-04-13T01:49:37.380Z,40.85
2023-04-13T01:50:06.297Z,41.21
2023-04-13T01:50:38.550Z,40.89
2023-04-13T01:51:14.860Z,40.58
2023-04-13T01:51:42.666Z,41.02
2023-04-13T01:52:07.918Z,40.76
2023-04-13T01:52:34.111Z,40.53
2023-04-13T01:53:07.812Z,40.41
2023-04-13T01:53:36.867Z,40.90
2023-04-13T01:54:07.761Z,40.74
2023-04-13T01:54:33.693Z,40.67
2023-04-13T01:54:56.564Z,40.89
2023-04-13T01:55:19.484Z,40.71
2023-04-13T01:55:48.490Z,40.73
2023-04-13T01:56:12.930Z,40.92
2023-04-13T01:56:37.528Z,41.42
2023-04-13T01:57:00.428Z,41.38
2023-04-13T01:57:23.034Z,41.40
2023-04-13T01:57:48.720Z,41.05
2023-04-13T01:58:13.082Z,40.95
2023-04-13T01:58:36.391Z,40.84
2023-04-13T01:59:07.036Z,40.73
2023-04-13T01:59:30.163Z,40.83
2023-04-13T01:59:51.792Z,40.82
2023-04-13T02:00:18.200Z,41.02
2023-04-13T02:00:43.897Z,41.08
2023-04-13T02:01:07.821Z,40.65
2023-04-13T02:01:29.712Z,40.74
2023-04-13T02:01:54.594Z,40.80
2023-04-13T02:02:17.861Z,40.76
2023-04-13T02:02:39.869Z,40.98
2023-04-13T02:03:05.216Z,40.47
2023-04-13T02:03:27.318Z,40.38
2023-04-13T02:03:49.257Z,40.41
2023-04-13T02:04:12.487Z,40.77
2023-04-13T02:04:36.671Z,40.94
2023-04-13T02:04:59.757Z,41.63
2023-04-13T02:05:21.787Z,41.37
2023-04-13T02:05:43.485Z,41.22
2023-04-13T02:06:07.363Z,41.14
2023-04-13T02:06:30.278Z,41.03
2023-04-13T02:06:52.652Z,40.70
2023-04-13T02:07:20.858Z,40.71
2023-04-13T02:07:45.693Z,40.72
2023-04-13T02:08:08.127Z,40.96
2023-04-13T02:08:35.073Z,40.83
2023-04-13T02:08:56.771Z,40.91
2023-04-13T02:09:18.357Z,41.25
2023-04-13T02:09:41.424Z,40.97
2023-04-13T02:10:06.013Z,41.05
2023-04-13T02:10:27.812Z,40.60
2023-04-13T02:10:50.501Z,40.50
2023-04-13T02:11:13.450Z,40.36
2023-04-13T02:11:35.759Z,40.76
2023-04-13T02:11:59.296Z,40.54
2023-04-13T02:12:21.181Z,40.30
2023-04-13T02:12:44.559Z,40.29
2023-04-13T02:13:09.423Z,40.10
2023-04-13T02:13:31.259Z,40.29
2023-04-13T02:13:53.728Z,40.27
2023-04-13T02:14:16.891Z,40.31
2023-04-13T02:14:38.538Z,40.13
2023-04-13T02:15:01.173Z,40.20
2023-04-13T02:15:23.010Z,40.40
2023-04-13T02:15:46.022Z,40.19
2023-04-13T02:16:09.078Z,40.14
2023-04-13T02:16:30.909Z,40.40
2023-04-13T02:16:53.665Z,40.44
2023-04-13T02:17:15.785Z,40.36
2023-04-13T02:17:39.216Z,40.67
2023-04-13T02:18:02.417Z,40.58
2023-04-13T02:18:24.606Z,40.85
2023-04-13T02:18:46.604Z,41.14
2023-04-13T02:19:08.388Z,40.98
2023-04-13T02:19:31.996Z,40.77
2023-04-13T02:19:57.636Z,40.53
2023-04-13T02:20:19.762Z,40.33
2023-04-13T02:20:44.613Z,40.22
2023-04-13T02:21:09.344Z,40.02
2023-04-13T02:21:30.994Z,39.75
2023-04-13T02:21:53.449Z,39.77
2023-04-13T02:22:16.237Z,39.62
2023-04-13T02:22:39.400Z,39.74
2023-04-13T02:23:01.392Z,39.90
2023-04-13T02:23:23.083Z,40.18
2023-04-13T02:23:44.823Z,40.37
2023-04-13T02:24:08.482Z,40.43
2023-04-13T02:24:30.240Z,40.24
2023-04-13T02:24:51.886Z,40.32
2023-04-13T02:25:15.404Z,40.50
2023-04-13T02:25:39.141Z,40.26
2023-04-13T02:26:01.378Z,40.21
2023-04-13T02:26:23.187Z,40.07
2023-04-13T02:26:46.499Z,40.06
2023-04-13T02:27:10.517Z,40.05
2023-04-13T02:27:35.660Z,39.90
2023-04-13T02:28:02.502Z,39.94
2023-04-13T02:28:29.757Z,39.97
2023-04-13T02:28:52.702Z,40.35
2023-04-13T02:29:27.772Z,40.32
2023-04-13T02:29:52.662Z,40.24
2023-04-13T02:30:22.140Z,40.17
2023-04-13T02:30:44.847Z,40.21
2023-04-13T02:31:07.323Z,40.10
2023-04-13T02:31:33.685Z,40.02
2023-04-13T02:31:56.347Z,40.07
2023-04-13T02:32:18.858Z,40.29
2023-04-13T02:32:41.898Z,40.16
2023-04-13T02:33:04.807Z,40.38
2023-04-13T02:33:31.462Z,40.34
2023-04-13T02:33:57.617Z,40.48
2023-04-13T02:34:21.614Z,40.82
2023-04-13T02:34:44.081Z,40.72
2023-04-13T02:35:12.489Z,40.75
2023-04-13T02:35:39.090Z,40.85
2023-04-13T02:36:05.202Z,40.64
2023-04-13T02:36:34.861Z,40.68
2023-04-13T02:37:03.248Z,40.63
2023-04-13T02:37:25.536Z,40.64
2023-04-13T02:37:49.861Z,40.71
2023-04-13T02:38:13.781Z,40.72
2023-04-13T02:38:43.355Z,40.61
2023-04-13T02:39:16.270Z,40.59
2023-04-13T02:39:40.038Z,40.51
2023-04-13T02:40:04.255Z,40.70
2023-04-13T02:40:28.291Z,41.08
2023-04-13T02:40:55.528Z,40.48
2023-04-13T02:41:22.751Z,40.26
2023-04-13T02:41:47.689Z,40.51
2023-04-13T02:42:16.683Z,40.47
2023-04-13T02:42:44.863Z,40.37
2023-04-13T02:43:07.465Z,40.42
2023-04-13T02:43:36.790Z,40.31
2023-04-13T02:44:00.101Z,40.38
2023-04-13T02:44:29.107Z,40.27
2023-04-13T02:44:53.222Z,40.22
2023-04-13T02:45:18.635Z,40.17
2023-04-13T02:45:45.210Z,40.36
2023-04-13T02:46:13.524Z,40.25
2023-04-13T02:46:38.305Z,40.78
2023-04-13T02:47:07.362Z,40.82
2023-04-13T02:47:34.138Z,40.38
2023-04-13T02:48:05.877Z,40.58
2023-04-13T02:48:31.694Z,40.95
2023-04-13T02:48:57.911Z,40.51
2023-04-13T02:49:24.615Z,40.86
2023-04-13T02:49:59.472Z,40.67
2023-04-13T02:50:29.717Z,40.60
2023-04-13T02:50:56.622Z,40.35
2023-04-13T02:51:23.293Z,40.27
2023-04-13T02:51:44.997Z,40.37
2023-04-13T02:52:08.760Z,40.20
2023-04-13T02:52:39.572Z,41.16
2023-04-13T02:53:02.498Z,41.23
2023-04-13T02:53:25.204Z,41.37
2023-04-13T02:53:54.504Z,41.44
2023-04-13T02:54:22.268Z,41.67
2023-04-13T02:54:44.804Z,41.37
2023-04-13T02:55:09.798Z,41.02
2023-04-13T02:55:50.588Z,41.92
2023-04-13T02:56:17.061Z,42.11
2023-04-13T02:56:58.763Z,42.03
2023-04-13T02:57:22.469Z,41.43
2023-04-13T02:57:52.058Z,41.35
2023-04-13T02:58:17.303Z,41.56
2023-04-13T02:58:48.771Z,41.03
2023-04-13T02:59:13.961Z,40.96
2023-04-13T02:59:38.379Z,41.02
2023-04-13T03:00:14.128Z,40.96
2023-04-13T03:00:50.142Z,41.24
2023-04-13T03:01:18.082Z,41.12
2023-04-13T03:01:40.440Z,40.99
2023-04-13T03:02:06.886Z,40.84
2023-04-13T03:02:30.062Z,40.73
2023-04-13T03:03:00.490Z,40.65
2023-04-13T03:03:27.545Z,40.84
2023-04-13T03:03:52.384Z,40.88
2023-04-13T03:04:18.164Z,40.80
2023-04-13T03:04:40.591Z,40.92
2023-04-13T03:05:06.000Z,40.53
2023-04-13T03:05:31.338Z,40.79
2023-04-13T03:05:54.520Z,40.60
2023-04-13T03:06:22.898Z,40.76
2023-04-13T03:06:54.375Z,40.89
2023-04-13T03:07:20.812Z,40.61
2023-04-13T03:07:46.737Z,40.70
2023-04-13T03:08:10.422Z,40.81
2023-04-13T03:08:36.949Z,40.85
2023-04-13T03:09:05.875Z,40.92
2023-04-13T03:09:39.950Z,40.68
2023-04-13T03:10:05.690Z,41.01
2023-04-13T03:10:31.951Z,41.21
2023-04-13T03:11:01.397Z,41.34
2023-04-13T03:11:25.174Z,41.28
2023-04-13T03:12:07.670Z,41.34
2023-04-13T03:12:31.159Z,41.23
2023-04-13T03:12:55.049Z,41.05
2023-04-13T03:13:18.235Z,41.20
2023-04-13T03:13:42.116Z,41.05
2023-04-13T03:14:07.905Z,41.04
2023-04-13T03:14:33.282Z,41.30
2023-04-13T03:15:03.229Z,41.52
2023-04-13T03:15:25.810Z,41.18
2023-04-13T03:15:50.886Z,41.20
2023-04-13T03:16:13.557Z,41.36
2023-04-13T03:16:35.719Z,41.26
2023-04-13T03:16:58.561Z,41.12
2023-04-13T03:17:30.066Z,40.98
2023-04-13T03:17:52.818Z,41.10
2023-04-13T03:18:18.954Z,40.86
2023-04-13T03:18:45.659Z,40.73
2023-04-13T03:19:07.780Z,40.43
2023-04-13T03:19:31.610Z,40.56
2023-04-13T03:19:54.773Z,40.37
2023-04-13T03:20:21.127Z,40.67
2023-04-13T03:20:49.659Z,40.73
2023-04-13T03:21:23.018Z,40.85
2023-04-13T03:21:58.446Z,40.89
2023-04-13T03:22:24.424Z,40.95
2023-04-13T03:22:46.779Z,40.70
2023-04-13T03:23:10.654Z,40.73
2023-04-13T03:23:33.804Z,40.78
2023-04-13T03:23:56.465Z,40.95
2023-04-13T03:24:20.240Z,41.63
2023-04-13T03:24:43.501Z,41.12
2023-04-13T03:25:11.706Z,40.95
2023-04-13T03:25:36.131Z,40.73
2023-04-13T03:26:01.205Z,40.67
2023-04-13T03:26:25.072Z,40.72
2023-04-13T03:26:48.957Z,40.83
2023-04-13T03:27:17.268Z,40.96
2023-04-13T03:27:44.287Z,40.90
2023-04-13T03:28:07.733Z,40.85
2023-04-13T03:28:34.931Z,40.88
2023-04-13T03:28:58.179Z,40.84
2023-04-13T03:29:23.967Z,41.23
2023-04-13T03:29:47.044Z,41.01
2023-04-13T03:30:15.545Z,40.97
2023-04-13T03:30:48.553Z,40.97
2023-04-13T03:31:11.827Z,41.00
2023-04-13T03:31:34.108Z,41.07
2023-04-13T03:32:06.273Z,41.60
2023-04-13T03:32:32.846Z,41.43
2023-04-13T03:32:56.759Z,41.21
2023-04-13T03:33:21.717Z,41.06
2023-04-13T03:33:43.946Z,40.98
2023-04-13T03:34:07.014Z,40.85
2023-04-13T03:34:36.017Z,40.92
2023-04-13T03:35:06.205Z,41.17
2023-04-13T03:35:30.497Z,41.41
2023-04-13T03:35:55.926Z,41.14
2023-04-13T03:36:23.934Z,41.01
2023-04-13T03:36:46.628Z,41.02
2023-04-13T03:37:11.133Z,40.86
2023-04-13T03:37:40.332Z,40.92
2023-04-13T03:38:11.882Z,40.79
2023-04-13T03:38:40.007Z,41.00
2023-04-13T03:39:02.957Z,41.14
2023-04-13T03:39:31.623Z,41.09
2023-04-13T03:39:53.979Z,41.00
2023-04-13T03:40:22.607Z,40.88
2023-04-13T03:40:47.702Z,40.74
2023-04-13T03:41:12.710Z,40.91
2023-04-13T03:41:39.840Z,41.17
2023-04-13T03:42:04.733Z,40.85
2023-04-13T03:42:28.219Z,41.03
2023-04-13T03:42:55.236Z,40.88
2023-04-13T03:43:20.786Z,41.45
2023-04-13T03:43:52.276Z,41.40
2023-04-13T03:44:15.747Z,41.17
2023-04-13T03:44:39.152Z,40.99
2023-04-13T03:45:05.966Z,41.04
2023-04-13T03:45:28.743Z,40.91
2023-04-13T03:45:53.486Z,41.09
2023-04-13T03:46:16.390Z,41.30
2023-04-13T03:46:38.260Z,41.58
2023-04-13T03:47:10.047Z,41.24
2023-04-13T03:47:32.622Z,41.36
2023-04-13T03:47:55.653Z,41.55
2023-04-13T03:48:19.196Z,41.34
2023-04-13T03:48:42.050Z,41.23
2023-04-13T03:49:10.294Z,41.08
2023-04-13T03:49:33.008Z,41.21
2023-04-13T03:49:55.716Z,40.96
2023-04-13T03:50:17.661Z,40.93
2023-04-13T03:50:39.244Z,41.15
2023-04-13T03:51:03.623Z,41.10
2023-04-13T03:51:37.525Z,41.10
2023-04-13T03:51:59.192Z,41.16
2023-04-13T03:52:22.619Z,41.01
2023-04-13T03:52:51.182Z,40.94
2023-04-13T03:53:13.936Z,40.94
2023-04-13T03:53:38.804Z,40.58
2023-04-13T03:54:01.001Z,40.61
2023-04-13T03:54:24.095Z,40.64
2023-04-13T03:54:46.534Z,40.76
2023-04-13T03:55:10.040Z,40.73
2023-04-13T03:55:33.632Z,40.85
2023-04-13T03:56:01.650Z,41.03
2023-04-13T03:56:27.360Z,40.82
2023-04-13T03:56:51.221Z,40.83
2023-04-13T03:57:13.670Z,40.68
2023-04-13T03:57:37.661Z,40.76
2023-04-13T03:58:05.033Z,40.62
2023-04-13T03:58:27.260Z,40.66
2023-04-13T03:58:49.312Z,40.77
2023-04-13T03:59:16.690Z,40.79
2023-04-13T03:59:39.768Z,40.77
2023-04-13T04:00:07.837Z,40.84
2023-04-13T04:01:01.635Z,40.80
2023-04-13T04:01:40.282Z,40.75
2023-04-13T04:02:03.870Z,40.68
2023-04-13T04:02:28.224Z,40.79
2023-04-13T04:02:50.251Z,40.79
2023-04-13T04:03:25.416Z,40.51
2023-04-13T04:03:58.594Z,40.75
2023-04-13T04:04:23.560Z,40.73
2023-04-13T04:04:51.364Z,40.96
2023-04-13T04:05:19.751Z,40.90
2023-04-13T04:05:46.793Z,40.66
2023-04-13T04:06:11.301Z,40.51
2023-04-13T04:06:37.293Z,40.40
2023-04-13T04:07:08.807Z,40.35
2023-04-13T04:07:32.351Z,40.48
2023-04-13T04:07:59.540Z,40.71
2023-04-13T04:08:27.363Z,40.78
2023-04-13T04:08:52.451Z,40.95
2023-04-13T04:09:27.093Z,40.82
2023-04-13T04:09:52.041Z,40.68
2023-04-13T04:10:19.307Z,40.50
2023-04-13T04:10:43.828Z,40.78
2023-04-13T04:11:08.338Z,40.99
2023-04-13T04:11:30.170Z,40.72
2023-04-13T04:11:53.522Z,40.94
2023-04-13T04:12:23.521Z,40.93
2023-04-13T04:12:47.140Z,41.14
2023-04-13T04:13:10.918Z,40.83
2023-04-13T04:13:41.127Z,40.97
2023-04-13T04:14:07.960Z,40.85
2023-04-13T04:14:31.199Z,40.68
2023-04-13T04:15:10.929Z,40.74
2023-04-13T04:15:34.920Z,40.65
2023-04-13T04:16:01.025Z,40.61
2023-04-13T04:16:30.310Z,40.76
2023-04-13T04:17:01.318Z,41.27
2023-04-13T04:17:25.306Z,41.12
2023-04-13T04:17:47.079Z,41.18
2023-04-13T04:18:11.571Z,41.39
2023-04-13T04:18:35.880Z,41.29
2023-04-13T04:19:01.882Z,41.27
2023-04-13T04:19:28.717Z,41.28
2023-04-13T04:19:53.446Z,41.45
2023-04-13T04:20:22.100Z,41.11
2023-04-13T04:20:45.902Z,41.45
2023-04-13T04:21:13.823Z,41.73
2023-04-13T04:21:40.125Z,41.42
2023-04-13T04:22:07.290Z,41.29
2023-04-13T04:22:36.695Z,41.63
2023-04-13T04:23:01.754Z,41.30
2023-04-13T04:23:28.900Z,41.36
2023-04-13T04:24:00.754Z,41.21
2023-04-13T04:24:23.539Z,41.24
2023-04-13T04:24:50.749Z,40.80
2023-04-13T04:25:12.786Z,40.74
2023-04-13T04:25:38.028Z,40.73
2023-04-13T04:25:59.696Z,40.93
2023-04-13T04:26:26.244Z,40.98
2023-04-13T04:26:57.874Z,40.85
2023-04-13T04:27:20.471Z,40.66
2023-04-13T04:27:46.823Z,41.09
2023-04-13T04:28:08.567Z,41.19
2023-04-13T04:28:31.399Z,41.24
2023-04-13T04:29:02.335Z,41.10
2023-04-13T04:29:33.835Z,41.03
2023-04-13T04:29:59.268Z,40.77
2023-04-13T04:30:29.617Z,40.84
2023-04-13T04:30:55.258Z,40.55
2023-04-13T04:31:18.224Z,40.66
2023-04-13T04:31:44.299Z,40.63
2023-04-13T04:32:12.876Z,41.25
2023-04-13T04:32:36.398Z,41.06
2023-04-13T04:33:04.260Z,41.21
2023-04-13T04:33:30.893Z,41.13
2023-04-13T04:33:53.494Z,41.09
2023-04-13T04:34:16.797Z,40.80
2023-04-13T04:34:38.759Z,41.32
2023-04-13T04:35:00.658Z,41.10
2023-04-13T04:35:26.286Z,41.08
2023-04-13T04:35:51.417Z,41.08
2023-04-13T04:36:24.110Z,40.98
2023-04-13T04:36:54.034Z,40.92
2023-04-13T04:37:21.187Z,40.79
2023-04-13T04:37:55.794Z,40.83
2023-04-13T04:38:18.576Z,41.03
2023-04-13T04:38:41.956Z,41.32
2023-04-13T04:39:04.741Z,40.96
2023-04-13T04:39:35.269Z,40.75
2023-04-13T04:40:08.194Z,41.36
2023-04-13T04:40:35.732Z,41.45
2023-04-13T04:41:01.998Z,41.63
2023-04-13T04:41:24.660Z,41.38
2023-04-13T04:41:54.054Z,41.07
2023-04-13T04:42:18.815Z,40.88
2023-04-13T04:42:42.064Z,41.07
2023-04-13T04:43:13.270Z,41.09
2023-04-13T04:43:40.321Z,41.13
2023-04-13T04:44:03.334Z,41.10
2023-04-13T04:44:32.759Z,41.01
2023-04-13T04:44:59.573Z,41.20
2023-04-13T04:45:27.376Z,41.67
2023-04-13T04:45:53.010Z,41.74
2023-04-13T04:46:16.186Z,41.52
2023-04-13T04:46:43.671Z,42.17
2023-04-13T04:47:09.833Z,42.08
2023-04-13T04:47:50.498Z,41.92
2023-04-13T04:48:15.681Z,42.22
2023-04-13T04:48:41.692Z,42.55
2023-04-13T04:49:03.680Z,42.33
2023-04-13T04:49:27.979Z,42.07
2023-04-13T04:49:50.586Z,41.99
2023-04-13T04:50:14.517Z,41.94
2023-04-13T04:50:38.683Z,41.69
2023-04-13T04:51:08.379Z,41.90
2023-04-13T04:51:30.886Z,41.75
2023-04-13T04:51:54.970Z,41.94
2023-04-13T04:52:16.561Z,41.67
2023-04-13T04:52:38.956Z,41.98
2023-04-13T04:53:01.147Z,42.04
2023-04-13T04:53:24.752Z,42.41
2023-04-13T04:53:46.698Z,42.50
2023-04-13T04:54:08.441Z,42.49
2023-04-13T04:54:30.482Z,42.40
2023-04-13T04:54:53.846Z,42.31
2023-04-13T04:55:15.866Z,42.41
2023-04-13T04:55:38.307Z,42.46
2023-04-13T04:56:01.171Z,42.39
2023-04-13T04:56:34.683Z,42.33
2023-04-13T04:56:57.980Z,42.27
2023-04-13T04:57:20.611Z,42.50
2023-04-13T04:57:44.441Z,42.57
2023-04-13T04:58:09.484Z,42.89
2023-04-13T04:58:32.978Z,43.07
2023-04-13T04:58:54.630Z,43.19
2023-04-13T04:59:23.897Z,43.60
2023-04-13T04:59:55.849Z,43.32
2023-04-13T05:00:18.786Z,43.42
2023-04-13T05:01:02.607Z,43.38
2023-04-13T05:01:26.353Z,43.44
2023-04-13T05:01:57.601Z,43.23
2023-04-13T05:02:19.658Z,43.69
2023-04-13T05:02:43.123Z,43.68
2023-04-13T05:03:08.274Z,43.60
2023-04-13T05:03:33.905Z,43.59
2023-04-13T05:04:10.752Z,43.31
2023-04-13T05:04:35.458Z,43.36
2023-04-13T05:04:57.625Z,43.27
2023-04-13T05:05:19.791Z,43.11
2023-04-13T05:05:43.438Z,43.06
2023-04-13T05:06:10.756Z,43.01
2023-04-13T05:06:33.375Z,43.15
2023-04-13T05:06:56.045Z,43.29
2023-04-13T05:07:21.173Z,43.46
2023-04-13T05:07:43.132Z,43.34
2023-04-13T05:08:04.869Z,43.45
2023-04-13T05:08:29.573Z,43.49
2023-04-13T05:08:52.782Z,43.17
2023-04-13T05:09:14.995Z,43.08
2023-04-13T05:09:42.127Z,43.07
2023-04-13T05:10:04.627Z,42.84
2023-04-13T05:10:28.745Z,43.21
2023-04-13T05:10:52.462Z,43.46
2023-04-13T05:11:14.512Z,43.27
2023-04-13T05:11:36.691Z,43.33
2023-04-13T05:12:01.394Z,43.36
2023-04-13T05:12:23.100Z,43.36
2023-04-13T05:12:45.119Z,43.41
2023-04-13T05:13:07.948Z,43.24
2023-04-13T05:13:30.700Z,43.71
2023-04-13T05:14:06.929Z,43.77
2023-04-13T05:14:28.895Z,43.76
2023-04-13T05:14:51.632Z,43.78
2023-04-13T05:15:13.804Z,43.91
2023-04-13T05:15:35.540Z,43.96
2023-04-13T05:15:57.148Z,44.17
2023-04-13T05:16:21.278Z,44.46
2023-04-13T05:16:43.305Z,44.62
2023-04-13T05:17:11.243Z,44.34
2023-04-13T05:17:36.338Z,44.19
2023-04-13T05:17:59.963Z,44.20
2023-04-13T05:18:25.622Z,44.04
2023-04-13T05:18:48.242Z,43.96
2023-04-13T05:19:28.375Z,43.67
2023-04-13T05:19:56.448Z,43.70
2023-04-13T05:20:22.038Z,43.83
2023-04-13T05:20:56.284Z,43.95
2023-04-13T05:21:18.735Z,43.83
2023-04-13T05:21:46.949Z,43.69
2023-04-13T05:22:08.636Z,43.60
2023-04-13T05:22:37.394Z,43.71
2023-04-13T05:23:01.779Z,43.48
2023-04-13T05:23:23.503Z,43.51
2023-04-13T05:23:53.090Z,43.35
2023-04-13T05:24:14.738Z,43.32
2023-04-13T05:24:37.396Z,43.31
2023-04-13T05:25:07.009Z,43.19
2023-04-13T05:25:29.109Z,42.92
2023-04-13T05:25:54.204Z,42.87
2023-04-13T05:26:17.793Z,43.22
2023-04-13T05:26:39.414Z,43.34
2023-04-13T05:27:01.570Z,43.22
2023-04-13T05:27:24.268Z,43.01
2023-04-13T05:27:48.700Z,42.94